createdAt,value
2023-06-21T00:00:37.556Z,14.15
2023-06-21T00:04:39.274Z,15.90
2023-06-21T00:08:40.961Z,14.82
2023-06-21T00:12:42.662Z,16.00
2023-06-21T00:16:45.556Z,15.70
2023-06-21T00:20:48.263Z,16.08
2023-06-21T00:28:51.941Z,12.45
2023-06-21T00:32:53.774Z,12.57
2023-06-21T00:36:55.630Z,13.47
2023-06-21T00:40:58.773Z,15.15
2023-06-21T00:45:01.000Z,14.73
2023-06-21T00:49:02.828Z,17.07
2023-06-21T00:53:04.550Z,15.33
2023-06-21T00:57:06.733Z,15.23
2023-06-21T01:01:08.500Z,13.63
2023-06-21T01:05:10.611Z,18.77
2023-06-21T01:09:24.308Z,14.88
2023-06-21T01:13:49.927Z,14.25
2023-06-21T01:17:53.830Z,16.30
2023-06-21T01:21:58.975Z,16.13
2023-06-21T01:26:17.303Z,15.10
2023-06-21T01:30:21.498Z,16.83
2023-06-21T01:34:24.305Z,13.88
2023-06-21T01:38:25.996Z,14.23
2023-06-21T01:42:27.749Z,16.55
2023-06-21T01:46:29.732Z,17.92
2023-06-21T01:50:32.903Z,17.77
2023-06-21T01:54:35.753Z,15.73
2023-06-21T01:58:37.871Z,16.00
2023-06-21T02:02:40.625Z,16.87
2023-06-21T02:10:45.901Z,14.98
2023-06-21T02:14:47.650Z,13.00
2023-06-21T02:18:49.951Z,12.70
2023-06-21T02:22:51.690Z,10.03
2023-06-21T02:26:53.397Z,15.15
2023-06-21T02:30:55.123Z,19.10
2023-06-21T02:34:56.960Z,14.63
2023-06-21T02:38:58.673Z,14.57
2023-06-21T02:43:00.868Z,16.33
2023-06-21T02:47:02.808Z,13.50
2023-06-21T02:51:04.931Z,13.55
2023-06-21T02:55:08.506Z,12.93
2023-06-21T02:59:11.268Z,13.90
2023-06-21T03:03:13.107Z,15.52
2023-06-21T03:07:14.870Z,16.27
2023-06-21T03:11:16.733Z,15.05
2023-06-21T03:15:18.497Z,15.75
2023-06-21T03:19:21.006Z,14.88
2023-06-21T03:23:23.670Z,13.05
2023-06-21T03:27:26.138Z,12.70
2023-06-21T03:31:28.083Z,16.93
2023-06-21T03:35:30.925Z,15.00
2023-06-21T03:39:32.987Z,15.88
2023-06-21T03:43:34.767Z,11.63
2023-06-21T03:47:41.992Z,16.15
2023-06-21T03:51:43.916Z,15.57
2023-06-21T03:55:45.906Z,13.70
2023-06-21T03:59:47.703Z,14.15
2023-06-21T04:03:50.960Z,13.13
2023-06-21T04:07:52.826Z,15.90
2023-06-21T04:11:54.631Z,11.47
2023-06-21T04:15:56.387Z,10.75
2023-06-21T04:19:59.760Z,12.35
2023-06-21T04:24:04.591Z,13.00
2023-06-21T04:28:07.570Z,13.95
2023-06-21T04:32:10.922Z,17.40
2023-06-21T04:36:12.656Z,12.25
2023-06-21T04:40:18.673Z,17.00
2023-06-21T04:44:21.466Z,12.30
2023-06-21T04:48:25.733Z,18.67
2023-06-21T04:52:29.856Z,15.20
2023-06-21T04:56:33.329Z,13.18
2023-06-21T05:00:36.109Z,13.63
2023-06-21T05:04:37.886Z,14.75
2023-06-21T05:08:41.265Z,14.00
2023-06-21T05:12:44.380Z,12.13
2023-06-21T05:16:46.121Z,13.33
2023-06-21T05:20:49.089Z,19.83
2023-06-21T05:28:52.811Z,13.82
2023-06-21T05:32:54.747Z,16.08
2023-06-21T05:36:56.973Z,29.77
2023-06-21T05:41:02.105Z,14.57
2023-06-21T05:45:07.939Z,18.20
2023-06-21T05:49:09.751Z,15.88
2023-06-21T05:53:13.272Z,17.83
2023-06-21T05:57:16.939Z,17.77
2023-06-21T06:01:24.610Z,19.10
2023-06-21T06:05:31.430Z,24.23
2023-06-21T06:09:34.925Z,18.52
2023-06-21T06:13:37.286Z,17.90
2023-06-21T06:17:41.104Z,18.30
2023-06-21T06:21:43.745Z,19.98
2023-06-21T06:25:46.934Z,14.77
2023-06-21T06:29:50.696Z,19.77
2023-06-21T06:33:55.141Z,20.27
2023-06-21T06:37:58.936Z,24.55
2023-06-21T06:42:01.316Z,18.63
2023-06-21T06:46:04.473Z,26.23
2023-06-21T06:50:09.990Z,19.92
2023-06-21T06:54:12.478Z,22.02
2023-06-21T07:02:18.950Z,17.00
2023-06-21T07:06:27.203Z,15.30
2023-06-21T07:10:29.259Z,22.75
2023-06-21T07:14:31.941Z,14.60
2023-06-21T07:18:35.664Z,16.60
2023-06-21T07:22:41.965Z,20.35
2023-06-21T07:26:45.943Z,30.20
2023-06-21T07:30:48.832Z,17.25
2023-06-21T07:38:55.416Z,15.05
2023-06-21T07:42:57.283Z,15.60
2023-06-21T07:46:59.389Z,14.30
2023-06-21T07:51:01.918Z,17.85
2023-06-21T07:55:06.892Z,15.80
2023-06-21T07:59:10.529Z,12.88
2023-06-21T08:03:15.868Z,14.38
2023-06-21T08:07:22.571Z,13.00
2023-06-21T08:11:27.415Z,12.60
2023-06-21T08:15:29.584Z,12.38
2023-06-21T08:19:31.490Z,11.15
2023-06-21T08:23:35.032Z,11.93
2023-06-21T08:27:38.215Z,10.93
2023-06-21T08:31:42.456Z,7.53
2023-06-21T08:35:47.206Z,11.30
2023-06-21T08:39:53.786Z,8.93
2023-06-21T08:43:55.564Z,10.90
2023-06-21T08:48:06.040Z,8.52
2023-06-21T08:52:14.189Z,11.80
2023-06-21T08:56:22.948Z,8.82
2023-06-21T09:00:38.010Z,9.70
2023-06-21T09:04:49.302Z,10.30
2023-06-21T09:08:53.207Z,9.15
2023-06-21T09:13:02.677Z,10.73
2023-06-21T09:17:08.062Z,10.60
2023-06-21T09:21:12.685Z,9.50
2023-06-21T09:25:14.972Z,8.15
2023-06-21T09:29:17.536Z,10.90
2023-06-21T09:33:20.579Z,10.13
2023-06-21T09:37:39.951Z,11.48
2023-06-21T09:41:44.997Z,8.30
2023-06-21T09:46:05.484Z,8.65
2023-06-21T09:50:08.984Z,9.75
2023-06-21T09:54:11.385Z,6.65
2023-06-21T09:58:15.665Z,8.10
2023-06-21T10:02:20.474Z,7.63
2023-06-21T10:06:31.214Z,7.05
2023-06-21T10:10:35.945Z,8.15
2023-06-21T10:14:41.009Z,7.88
2023-06-21T10:18:43.243Z,7.68
2023-06-21T10:26:52.005Z,7.60
2023-06-21T10:30:58.431Z,7.75
2023-06-21T10:35:22.652Z,9.15
2023-06-21T10:39:27.988Z,10.10
2023-06-21T10:43:30.971Z,7.28
2023-06-21T10:47:34.167Z,9.98
2023-06-21T10:51:41.920Z,10.63
2023-06-21T10:55:44.604Z,8.75
2023-06-21T10:59:48.591Z,7.55
2023-06-21T11:03:51.101Z,7.82
2023-06-21T11:08:08.026Z,9.10
2023-06-21T11:12:10.185Z,9.25
2023-06-21T11:16:14.745Z,8.27
2023-06-21T11:20:23.915Z,9.00
2023-06-21T11:24:27.489Z,10.05
2023-06-21T11:28:35.223Z,8.05
2023-06-21T11:32:54.546Z,8.45
2023-06-21T11:36:57.457Z,9.43
2023-06-21T11:45:18.166Z,8.95
2023-06-21T11:49:21.978Z,10.57
2023-06-21T11:53:42.013Z,7.82
2023-06-21T11:57:47.792Z,8.45
2023-06-21T12:01:52.018Z,7.47
2023-06-21T12:06:00.484Z,8.23
2023-06-21T12:10:06.069Z,9.90
2023-06-21T12:14:10.394Z,8.50
2023-06-21T12:18:13.722Z,8.40
2023-06-21T12:22:16.824Z,7.88
2023-06-21T12:26:19.455Z,8.82
2023-06-21T12:30:21.496Z,7.18
2023-06-21T12:34:24.062Z,12.05
2023-06-21T12:38:25.750Z,7.43
2023-06-21T12:42:32.804Z,9.95
2023-06-21T12:46:40.979Z,7.13
2023-06-21T12:50:44.144Z,10.75
2023-06-21T12:54:58.229Z,8.23
2023-06-21T12:59:00.963Z,7.28
2023-06-21T13:03:04.202Z,8.00
2023-06-21T13:07:10.071Z,9.02
2023-06-21T13:11:14.753Z,10.27
2023-06-21T13:15:17.067Z,7.90
2023-06-21T13:19:20.075Z,8.73
2023-06-21T13:23:23.121Z,9.38
2023-06-21T13:27:26.410Z,8.32
2023-06-21T13:31:28.511Z,6.75
2023-06-21T13:35:31.071Z,9.90
2023-06-21T13:39:34.430Z,7.43
2023-06-21T13:43:36.318Z,6.82
2023-06-21T13:47:39.613Z,8.45
2023-06-21T13:51:42.058Z,8.35
2023-06-21T13:55:44.395Z,9.57
2023-06-21T13:59:48.994Z,8.38
2023-06-21T14:03:51.242Z,5.68
2023-06-21T14:07:53.363Z,7.00
2023-06-21T14:11:55.600Z,10.65
2023-06-21T14:15:59.452Z,5.82
2023-06-21T14:20:07.626Z,6.32
2023-06-21T14:24:09.593Z,6.50
2023-06-21T14:28:11.499Z,5.95
2023-06-21T14:32:13.547Z,7.25
2023-06-21T14:36:15.672Z,7.22
2023-06-21T14:40:18.094Z,6.72
2023-06-21T14:44:19.898Z,6.57
2023-06-21T14:48:22.166Z,5.85
2023-06-21T14:52:24.898Z,7.82
2023-06-21T14:56:27.073Z,7.50
2023-06-21T15:00:29.057Z,5.50
2023-06-21T15:04:31.508Z,6.78
2023-06-21T15:08:35.733Z,6.07
2023-06-21T15:12:48.032Z,6.35
2023-06-21T15:16:58.241Z,7.70
2023-06-21T15:21:00.040Z,6.78
2023-06-21T15:25:01.738Z,6.65
2023-06-21T15:29:08.442Z,6.75
2023-06-21T15:33:11.035Z,6.50
2023-06-21T15:37:13.159Z,6.75
2023-06-21T15:41:15.104Z,8.07
2023-06-21T15:45:16.799Z,8.23
2023-06-21T15:49:18.633Z,7.57
2023-06-21T15:53:22.097Z,7.25
2023-06-21T15:57:27.647Z,13.10
2023-06-21T16:01:29.551Z,7.13
2023-06-21T16:05:33.113Z,8.18
2023-06-21T16:09:34.812Z,7.85
2023-06-21T16:13:46.345Z,8.48
2023-06-21T16:17:49.521Z,6.23
2023-06-21T16:25:56.117Z,7.57
2023-06-21T16:29:58.222Z,8.95
2023-06-21T16:34:02.132Z,9.20
2023-06-21T16:38:03.981Z,6.00
2023-06-21T16:50:10.895Z,6.05
2023-06-21T16:54:12.610Z,10.48
2023-06-21T16:58:14.338Z,8.43
2023-06-21T17:02:16.153Z,6.30
2023-06-21T17:06:25.303Z,8.45
2023-06-21T17:10:27.439Z,7.65
2023-06-21T17:14:29.243Z,7.40
2023-06-21T17:18:34.093Z,8.98
2023-06-21T17:22:36.329Z,8.75
2023-06-21T17:26:38.132Z,10.40
2023-06-21T17:30:42.134Z,7.82
2023-06-21T17:34:44.011Z,10.38
2023-06-21T17:38:45.857Z,7.72
2023-06-21T17:42:48.430Z,8.27
2023-06-21T17:46:52.196Z,7.63
2023-06-21T17:50:55.132Z,8.75
2023-06-21T17:54:57.720Z,8.18
2023-06-21T17:59:05.138Z,9.77
2023-06-21T18:03:08.546Z,8.85
2023-06-21T18:07:12.154Z,9.23
2023-06-21T18:11:13.893Z,7.65
2023-06-21T18:15:21.179Z,10.65
2023-06-21T18:19:22.872Z,8.57
2023-06-21T18:23:25.140Z,10.68
2023-06-21T18:27:26.858Z,8.63
2023-06-21T18:31:28.688Z,10.95
2023-06-21T18:35:31.226Z,10.20
2023-06-21T18:39:33.041Z,8.25
2023-06-21T18:43:35.118Z,8.50
2023-06-21T18:47:37.141Z,8.40
2023-06-21T18:51:40.151Z,8.68
2023-06-21T18:55:41.864Z,9.45
2023-06-21T18:59:44.632Z,8.60
2023-06-21T19:03:48.714Z,11.13
2023-06-21T19:07:52.077Z,10.60
2023-06-21T19:15:58.146Z,7.25
2023-06-21T19:24:03.203Z,8.77
2023-06-21T19:28:05.198Z,9.45
2023-06-21T19:32:08.189Z,10.63
2023-06-21T19:36:10.272Z,9.35
2023-06-21T19:40:13.188Z,9.65
2023-06-21T19:44:15.483Z,13.75
2023-06-21T19:48:19.222Z,8.10
2023-06-21T19:52:20.929Z,9.55
2023-06-21T19:56:22.799Z,10.13
2023-06-21T20:00:25.167Z,9.03
2023-06-21T20:04:26.849Z,11.13
2023-06-21T20:08:28.927Z,14.13
2023-06-21T20:12:31.186Z,9.38
2023-06-21T20:16:33.154Z,11.00
2023-06-21T20:20:36.413Z,10.65
2023-06-21T20:24:38.113Z,9.27
2023-06-21T20:28:39.824Z,10.03
2023-06-21T20:32:41.585Z,14.97
2023-06-21T20:36:44.438Z,9.33
2023-06-21T20:40:47.108Z,8.90
2023-06-21T20:44:48.922Z,9.57
2023-06-21T20:48:54.516Z,11.53
2023-06-21T20:52:56.305Z,11.88
2023-06-21T20:56:58.064Z,13.67
2023-06-21T21:00:59.752Z,9.30
2023-06-21T21:05:01.645Z,9.43
2023-06-21T21:09:04.527Z,10.07
2023-06-21T21:13:08.582Z,9.82
2023-06-21T21:17:10.297Z,11.13
2023-06-21T21:21:13.043Z,9.10
2023-06-21T21:25:15.152Z,11.25
2023-06-21T21:29:17.287Z,10.15
2023-06-21T21:33:20.506Z,11.35
2023-06-21T21:37:22.227Z,10.80
2023-06-21T21:41:23.905Z,9.30
2023-06-21T21:45:26.199Z,10.70
2023-06-21T21:49:27.872Z,12.48
2023-06-21T21:53:29.598Z,10.63
2023-06-21T21:57:31.302Z,10.00
2023-06-21T22:01:34.777Z,12.67
2023-06-21T22:05:36.438Z,9.13
2023-06-21T22:09:38.150Z,9.60
2023-06-21T22:13:39.990Z,9.93
2023-06-21T22:17:41.765Z,9.50
2023-06-21T22:21:44.617Z,9.90
2023-06-21T22:25:46.851Z,10.47
2023-06-21T22:29:48.550Z,9.23
2023-06-21T22:33:50.249Z,9.13
2023-06-21T22:37:51.990Z,10.80
2023-06-21T22:41:53.762Z,10.07
2023-06-21T22:45:55.636Z,8.90
2023-06-21T22:49:57.586Z,8.90
2023-06-21T22:53:59.355Z,9.53
2023-06-21T22:58:01.293Z,9.60
2023-06-21T23:02:03.159Z,12.15
2023-06-21T23:06:09.734Z,13.20
2023-06-21T23:10:11.602Z,10.50
2023-06-21T23:14:19.626Z,8.83
2023-06-21T23:18:21.511Z,12.32
2023-06-21T23:22:23.442Z,12.57
2023-06-21T23:26:28.152Z,11.73
2023-06-21T23:30:35.979Z,10.77
2023-06-21T23:34:38.793Z,12.50
2023-06-21T23:38:46.216Z,10.35
2023-06-21T23:42:49.775Z,11.45
2023-06-21T23:46:51.452Z,9.52
2023-06-21T23:50:53.146Z,9.97
2023-06-21T23:54:54.847Z,10.13
2023-06-21T23:58:56.616Z,11.70
